sensor_id;sensor_type;location;lat;lon;timestamp;temperature;humidity
5192;DHT22;2615;44.524;11.284;2023-03-01T00:01:19;6.50;63.30
5192;DHT22;2615;44.524;11.284;2023-03-01T00:03:48;6.50;63.30
5192;DHT22;2615;44.524;11.284;2023-03-01T00:06:16;6.50;63.30
5192;DHT22;2615;44.524;11.284;2023-03-01T00:08:44;6.50;63.30
5192;DHT22;2615;44.524;11.284;2023-03-01T00:11:15;6.50;63.30
5192;DHT22;2615;44.524;11.284;2023-03-01T00:13:45;6.50;63.30
5192;DHT22;2615;44.524;11.284;2023-03-01T00:16:16;6.50;63.30
5192;DHT22;2615;44.524;11.284;2023-03-01T00:18:46;6.50;63.30
5192;DHT22;2615;44.524;11.284;2023-03-01T00:21:15;6.50;63.30
5192;DHT22;2615;44.524;11.284;2023-03-01T00:23:43;6.50;63.20
5192;DHT22;2615;44.524;11.284;2023-03-01T00:26:13;6.40;63.10
5192;DHT22;2615;44.524;11.284;2023-03-01T00:28:41;6.40;63.10
5192;DHT22;2615;44.524;11.284;2023-03-01T00:31:11;6.40;63.00
5192;DHT22;2615;44.524;11.284;2023-03-01T00:33:40;6.40;63.10
5192;DHT22;2615;44.524;11.284;2023-03-01T00:36:11;6.40;63.00
5192;DHT22;2615;44.524;11.284;2023-03-01T00:38:42;6.30;62.90
5192;DHT22;2615;44.524;11.284;2023-03-01T00:41:11;6.30;62.90
5192;DHT22;2615;44.524;11.284;2023-03-01T00:43:40;6.30;63.00
5192;DHT22;2615;44.524;11.284;2023-03-01T00:46:11;6.30;62.90
5192;DHT22;2615;44.524;11.284;2023-03-01T00:48:39;6.30;62.90
5192;DHT22;2615;44.524;11.284;2023-03-01T00:51:11;6.30;62.90
5192;DHT22;2615;44.524;11.284;2023-03-01T00:53:40;6.20;62.80
5192;DHT22;2615;44.524;11.284;2023-03-01T00:56:10;6.20;62.80
5192;DHT22;2615;44.524;11.284;2023-03-01T00:58:39;6.20;62.70
5192;DHT22;2615;44.524;11.284;2023-03-01T01:01:08;6.20;62.70
5192;DHT22;2615;44.524;11.284;2023-03-01T01:03:45;6.20;62.70
5192;DHT22;2615;44.524;11.284;2023-03-01T01:06:16;6.20;62.60
5192;DHT22;2615;44.524;11.284;2023-03-01T01:08:45;6.20;62.60
5192;DHT22;2615;44.524;11.284;2023-03-01T01:11:13;6.20;62.60
5192;DHT22;2615;44.524;11.284;2023-03-01T01:13:43;6.20;62.60
5192;DHT22;2615;44.524;11.284;2023-03-01T01:16:11;6.20;62.60
5192;DHT22;2615;44.524;11.284;2023-03-01T01:18:39;6.20;62.60
5192;DHT22;2615;44.524;11.284;2023-03-01T01:21:11;6.20;62.60
5192;DHT22;2615;44.524;11.284;2023-03-01T01:23:41;6.20;62.60
5192;DHT22;2615;44.524;11.284;2023-03-01T01:26:11;6.20;62.50
5192;DHT22;2615;44.524;11.284;2023-03-01T01:28:39;6.20;62.90
5192;DHT22;2615;44.524;11.284;2023-03-01T01:31:07;6.20;62.50
5192;DHT22;2615;44.524;11.284;2023-03-01T01:33:36;6.20;62.50
5192;DHT22;2615;44.524;11.284;2023-03-01T01:36:06;6.20;62.50
5192;DHT22;2615;44.524;11.284;2023-03-01T01:38:34;6.20;62.50
5192;DHT22;2615;44.524;11.284;2023-03-01T01:41:05;6.20;62.50
5192;DHT22;2615;44.524;11.284;2023-03-01T01:43:35;6.20;62.50
5192;DHT22;2615;44.524;11.284;2023-03-01T01:46:05;6.10;62.30
5192;DHT22;2615;44.524;11.284;2023-03-01T01:48:39;6.20;62.50
5192;DHT22;2615;44.524;11.284;2023-03-01T01:51:13;6.10;62.30
5192;DHT22;2615;44.524;11.284;2023-03-01T01:53:46;6.10;62.30
5192;DHT22;2615;44.524;11.284;2023-03-01T01:56:18;6.10;62.30
5192;DHT22;2615;44.524;11.284;2023-03-01T01:58:47;6.10;62.40
5192;DHT22;2615;44.524;11.284;2023-03-01T02:01:16;6.10;62.30
5192;DHT22;2615;44.524;11.284;2023-03-01T02:03:46;6.10;62.30
5192;DHT22;2615;44.524;11.284;2023-03-01T02:06:19;6.10;62.30
5192;DHT22;2615;44.524;11.284;2023-03-01T02:08:50;6.10;62.30
5192;DHT22;2615;44.524;11.284;2023-03-01T02:11:21;6.10;62.30
5192;DHT22;2615;44.524;11.284;2023-03-01T02:13:50;6.10;62.30
5192;DHT22;2615;44.524;11.284;2023-03-01T02:16:19;6.10;62.30
5192;DHT22;2615;44.524;11.284;2023-03-01T02:18:47;6.10;62.30
5192;DHT22;2615;44.524;11.284;2023-03-01T02:21:30;6.00;62.30
5192;DHT22;2615;44.524;11.284;2023-03-01T02:24:06;6.00;62.30
5192;DHT22;2615;44.524;11.284;2023-03-01T02:26:42;6.00;62.30
5192;DHT22;2615;44.524;11.284;2023-03-01T02:29:14;6.00;62.20
5192;DHT22;2615;44.524;11.284;2023-03-01T02:31:42;6.00;62.30
5192;DHT22;2615;44.524;11.284;2023-03-01T02:34:12;6.00;62.30
5192;DHT22;2615;44.524;11.284;2023-03-01T02:36:43;5.90;62.20
5192;DHT22;2615;44.524;11.284;2023-03-01T02:39:15;5.90;62.20
5192;DHT22;2615;44.524;11.284;2023-03-01T02:41:47;5.90;62.20
5192;DHT22;2615;44.524;11.284;2023-03-01T02:44:18;5.90;62.20
5192;DHT22;2615;44.524;11.284;2023-03-01T02:46:48;5.90;62.30
5192;DHT22;2615;44.524;11.284;2023-03-01T02:49:23;5.90;62.30
5192;DHT22;2615;44.524;11.284;2023-03-01T02:52:30;5.90;62.30
5192;DHT22;2615;44.524;11.284;2023-03-01T02:55:03;5.90;62.20
5192;DHT22;2615;44.524;11.284;2023-03-01T02:57:35;5.90;62.30
5192;DHT22;2615;44.524;11.284;2023-03-01T03:00:08;5.90;62.30
5192;DHT22;2615;44.524;11.284;2023-03-01T03:02:37;5.90;62.30
5192;DHT22;2615;44.524;11.284;2023-03-01T03:05:08;5.90;62.20
5192;DHT22;2615;44.524;11.284;2023-03-01T03:07:38;5.90;62.20
5192;DHT22;2615;44.524;11.284;2023-03-01T03:10:10;5.90;62.20
5192;DHT22;2615;44.524;11.284;2023-03-01T03:12:38;5.90;62.20
5192;DHT22;2615;44.524;11.284;2023-03-01T03:15:10;5.90;62.20
5192;DHT22;2615;44.524;11.284;2023-03-01T03:17:40;5.90;62.20
5192;DHT22;2615;44.524;11.284;2023-03-01T03:20:13;5.90;62.10
5192;DHT22;2615;44.524;11.284;2023-03-01T03:22:46;5.90;62.80
5192;DHT22;2615;44.524;11.284;2023-03-01T03:25:15;5.90;62.10
5192;DHT22;2615;44.524;11.284;2023-03-01T03:27:44;5.90;62.10
5192;DHT22;2615;44.524;11.284;2023-03-01T03:30:17;5.90;62.10
5192;DHT22;2615;44.524;11.284;2023-03-01T03:32:46;5.90;62.10
5192;DHT22;2615;44.524;11.284;2023-03-01T03:35:21;5.90;62.10
5192;DHT22;2615;44.524;11.284;2023-03-01T03:37:50;5.90;62.10
5192;DHT22;2615;44.524;11.284;2023-03-01T03:40:32;5.90;62.10
5192;DHT22;2615;44.524;11.284;2023-03-01T03:43:00;5.80;62.00
5192;DHT22;2615;44.524;11.284;2023-03-01T03:45:30;5.80;62.10
5192;DHT22;2615;44.524;11.284;2023-03-01T03:48:00;5.80;62.10
5192;DHT22;2615;44.524;11.284;2023-03-01T03:50:28;5.80;62.00
5192;DHT22;2615;44.524;11.284;2023-03-01T03:52:56;5.80;62.10
5192;DHT22;2615;44.524;11.284;2023-03-01T03:55:24;5.80;62.10
5192;DHT22;2615;44.524;11.284;2023-03-01T03:57:58;5.80;62.10
5192;DHT22;2615;44.524;11.284;2023-03-01T04:00:30;5.70;62.00
5192;DHT22;2615;44.524;11.284;2023-03-01T04:02:58;5.70;62.00
5192;DHT22;2615;44.524;11.284;2023-03-01T04:05:27;5.70;62.00
5192;DHT22;2615;44.524;11.284;2023-03-01T04:07:56;5.70;62.00
5192;DHT22;2615;44.524;11.284;2023-03-01T04:10:30;5.70;62.00
5192;DHT22;2615;44.524;11.284;2023-03-01T04:12:58;5.70;62.00
5192;DHT22;2615;44.524;11.284;2023-03-01T04:15:27;5.70;62.00
5192;DHT22;2615;44.524;11.284;2023-03-01T04:17:56;5.70;62.00
5192;DHT22;2615;44.524;11.284;2023-03-01T04:20:27;5.70;62.00
5192;DHT22;2615;44.524;11.284;2023-03-01T04:23:00;5.70;62.10
5192;DHT22;2615;44.524;11.284;2023-03-01T04:25:38;5.70;62.00
5192;DHT22;2615;44.524;11.284;2023-03-01T04:28:07;5.70;62.10
5192;DHT22;2615;44.524;11.284;2023-03-01T04:30:36;5.70;62.20
5192;DHT22;2615;44.524;11.284;2023-03-01T04:33:07;5.70;62.10
5192;DHT22;2615;44.524;11.284;2023-03-01T04:35:37;5.70;62.10
5192;DHT22;2615;44.524;11.284;2023-03-01T04:38:05;5.70;62.10
5192;DHT22;2615;44.524;11.284;2023-03-01T04:40:34;5.60;62.10
5192;DHT22;2615;44.524;11.284;2023-03-01T04:43:02;5.60;62.10
5192;DHT22;2615;44.524;11.284;2023-03-01T04:45:32;5.60;62.20
5192;DHT22;2615;44.524;11.284;2023-03-01T04:48:02;5.60;62.30
5192;DHT22;2615;44.524;11.284;2023-03-01T04:50:32;5.60;62.30
5192;DHT22;2615;44.524;11.284;2023-03-01T04:53:00;5.60;62.30
5192;DHT22;2615;44.524;11.284;2023-03-01T04:55:29;5.70;62.50
5192;DHT22;2615;44.524;11.284;2023-03-01T04:57:58;5.70;62.50
5192;DHT22;2615;44.524;11.284;2023-03-01T05:00:26;5.70;62.60
5192;DHT22;2615;44.524;11.284;2023-03-01T05:02:56;5.70;62.60
5192;DHT22;2615;44.524;11.284;2023-03-01T05:05:26;5.70;62.60
5192;DHT22;2615;44.524;11.284;2023-03-01T05:07:57;5.70;62.60
5192;DHT22;2615;44.524;11.284;2023-03-01T05:10:27;5.60;62.60
5192;DHT22;2615;44.524;11.284;2023-03-01T05:12:56;5.60;62.60
5192;DHT22;2615;44.524;11.284;2023-03-01T05:15:25;5.60;62.70
5192;DHT22;2615;44.524;11.284;2023-03-01T05:17:54;5.60;62.80
5192;DHT22;2615;44.524;11.284;2023-03-01T05:20:22;5.50;62.80
5192;DHT22;2615;44.524;11.284;2023-03-01T05:22:51;5.50;62.80
5192;DHT22;2615;44.524;11.284;2023-03-01T05:25:21;5.50;63.00
5192;DHT22;2615;44.524;11.284;2023-03-01T05:27:49;5.40;63.00
5192;DHT22;2615;44.524;11.284;2023-03-01T05:30:18;5.40;63.20
5192;DHT22;2615;44.524;11.284;2023-03-01T05:32:48;5.40;63.20
5192;DHT22;2615;44.524;11.284;2023-03-01T05:35:23;5.40;63.30
5192;DHT22;2615;44.524;11.284;2023-03-01T05:37:52;5.40;63.40
5192;DHT22;2615;44.524;11.284;2023-03-01T05:40:23;5.40;63.50
5192;DHT22;2615;44.524;11.284;2023-03-01T05:42:53;5.40;63.60
5192;DHT22;2615;44.524;11.284;2023-03-01T05:45:23;5.40;63.60
5192;DHT22;2615;44.524;11.284;2023-03-01T05:47:52;5.40;63.60
5192;DHT22;2615;44.524;11.284;2023-03-01T05:50:23;5.40;63.60
5192;DHT22;2615;44.524;11.284;2023-03-01T05:52:57;5.40;63.70
5192;DHT22;2615;44.524;11.284;2023-03-01T05:55:28;5.30;63.70
5192;DHT22;2615;44.524;11.284;2023-03-01T05:57:58;5.30;63.70
5192;DHT22;2615;44.524;11.284;2023-03-01T06:00:27;5.30;63.70
5192;DHT22;2615;44.524;11.284;2023-03-01T06:02:55;5.30;63.80
5192;DHT22;2615;44.524;11.284;2023-03-01T06:05:24;5.20;63.70
5192;DHT22;2615;44.524;11.284;2023-03-01T06:07:52;5.30;63.90
5192;DHT22;2615;44.524;11.284;2023-03-01T06:10:22;5.30;63.90
5192;DHT22;2615;44.524;11.284;2023-03-01T06:12:51;5.30;64.00
5192;DHT22;2615;44.524;11.284;2023-03-01T06:15:20;5.30;64.10
5192;DHT22;2615;44.524;11.284;2023-03-01T06:17:48;5.30;64.10
5192;DHT22;2615;44.524;11.284;2023-03-01T06:20:18;5.30;64.10
5192;DHT22;2615;44.524;11.284;2023-03-01T06:22:47;5.30;64.10
5192;DHT22;2615;44.524;11.284;2023-03-01T06:25:18;5.20;64.00
5192;DHT22;2615;44.524;11.284;2023-03-01T06:27:47;5.20;64.10
5192;DHT22;2615;44.524;11.284;2023-03-01T06:30:18;5.20;64.10
5192;DHT22;2615;44.524;11.284;2023-03-01T06:32:46;5.20;64.20
5192;DHT22;2615;44.524;11.284;2023-03-01T06:35:17;5.10;64.20
5192;DHT22;2615;44.524;11.284;2023-03-01T06:37:46;5.10;64.20
5192;DHT22;2615;44.524;11.284;2023-03-01T06:40:15;5.10;64.30
5192;DHT22;2615;44.524;11.284;2023-03-01T06:42:47;5.10;64.30
5192;DHT22;2615;44.524;11.284;2023-03-01T06:45:19;5.10;64.40
5192;DHT22;2615;44.524;11.284;2023-03-01T06:47:48;5.10;65.20
5192;DHT22;2615;44.524;11.284;2023-03-01T06:50:17;5.10;64.60
5192;DHT22;2615;44.524;11.284;2023-03-01T06:52:45;5.10;64.60
5192;DHT22;2615;44.524;11.284;2023-03-01T06:55:13;5.00;64.60
5192;DHT22;2615;44.524;11.284;2023-03-01T06:57:41;5.10;64.60
5192;DHT22;2615;44.524;11.284;2023-03-01T07:00:10;5.10;64.80
5192;DHT22;2615;44.524;11.284;2023-03-01T07:02:40;5.10;64.80
5192;DHT22;2615;44.524;11.284;2023-03-01T07:05:08;5.10;64.70
5192;DHT22;2615;44.524;11.284;2023-03-01T07:07:36;5.10;64.80
5192;DHT22;2615;44.524;11.284;2023-03-01T07:10:05;5.10;64.90
5192;DHT22;2615;44.524;11.284;2023-03-01T07:12:34;5.10;64.80
5192;DHT22;2615;44.524;11.284;2023-03-01T07:15:02;5.10;64.90
5192;DHT22;2615;44.524;11.284;2023-03-01T07:17:30;5.10;65.00
5192;DHT22;2615;44.524;11.284;2023-03-01T07:20:00;5.10;65.00
5192;DHT22;2615;44.524;11.284;2023-03-01T07:22:28;5.10;65.10
5192;DHT22;2615;44.524;11.284;2023-03-01T07:24:56;5.10;65.00
5192;DHT22;2615;44.524;11.284;2023-03-01T07:27:24;5.10;65.10
5192;DHT22;2615;44.524;11.284;2023-03-01T07:29:52;5.10;65.20
5192;DHT22;2615;44.524;11.284;2023-03-01T07:32:20;5.10;65.30
5192;DHT22;2615;44.524;11.284;2023-03-01T07:34:48;5.10;65.30
5192;DHT22;2615;44.524;11.284;2023-03-01T07:37:18;5.10;65.30
5192;DHT22;2615;44.524;11.284;2023-03-01T07:39:46;5.10;65.30
5192;DHT22;2615;44.524;11.284;2023-03-01T07:42:14;5.10;65.40
5192;DHT22;2615;44.524;11.284;2023-03-01T07:44:42;5.20;65.60
5192;DHT22;2615;44.524;11.284;2023-03-01T07:47:10;5.20;65.60
5192;DHT22;2615;44.524;11.284;2023-03-01T07:49:38;5.20;65.70
5192;DHT22;2615;44.524;11.284;2023-03-01T07:52:06;5.20;65.60
5192;DHT22;2615;44.524;11.284;2023-03-01T07:54:35;5.20;65.60
5192;DHT22;2615;44.524;11.284;2023-03-01T07:57:04;5.20;65.70
5192;DHT22;2615;44.524;11.284;2023-03-01T07:59:32;5.20;65.80
5192;DHT22;2615;44.524;11.284;2023-03-01T08:02:00;5.20;65.80
5192;DHT22;2615;44.524;11.284;2023-03-01T08:04:28;5.20;66.00
5192;DHT22;2615;44.524;11.284;2023-03-01T08:06:56;5.20;65.80
5192;DHT22;2615;44.524;11.284;2023-03-01T08:09:25;5.20;66.00
5192;DHT22;2615;44.524;11.284;2023-03-01T08:11:56;5.20;66.00
5192;DHT22;2615;44.524;11.284;2023-03-01T08:14:26;5.20;65.90
5192;DHT22;2615;44.524;11.284;2023-03-01T08:16:54;5.20;65.90
5192;DHT22;2615;44.524;11.284;2023-03-01T08:19:22;5.20;66.00
5192;DHT22;2615;44.524;11.284;2023-03-01T08:21:51;5.20;66.20
5192;DHT22;2615;44.524;11.284;2023-03-01T08:24:19;5.20;66.30
5192;DHT22;2615;44.524;11.284;2023-03-01T08:26:47;5.20;66.30
5192;DHT22;2615;44.524;11.284;2023-03-01T08:29:16;5.20;66.30
5192;DHT22;2615;44.524;11.284;2023-03-01T08:31:44;5.20;66.50
5192;DHT22;2615;44.524;11.284;2023-03-01T08:34:15;5.30;66.60
5192;DHT22;2615;44.524;11.284;2023-03-01T08:36:44;5.30;66.60
5192;DHT22;2615;44.524;11.284;2023-03-01T08:39:14;5.30;66.50
5192;DHT22;2615;44.524;11.284;2023-03-01T08:41:43;5.20;66.50
5192;DHT22;2615;44.524;11.284;2023-03-01T08:44:16;5.20;66.60
5192;DHT22;2615;44.524;11.284;2023-03-01T08:46:44;5.20;66.60
5192;DHT22;2615;44.524;11.284;2023-03-01T08:49:15;5.20;66.60
5192;DHT22;2615;44.524;11.284;2023-03-01T08:51:45;5.20;66.80
5192;DHT22;2615;44.524;11.284;2023-03-01T08:54:15;5.20;66.80
5192;DHT22;2615;44.524;11.284;2023-03-01T08:56:45;5.30;66.90
5192;DHT22;2615;44.524;11.284;2023-03-01T08:59:15;5.30;66.90
5192;DHT22;2615;44.524;11.284;2023-03-01T09:01:44;5.30;66.90
5192;DHT22;2615;44.524;11.284;2023-03-01T09:04:12;5.30;66.90
5192;DHT22;2615;44.524;11.284;2023-03-01T09:06:41;5.30;66.90
5192;DHT22;2615;44.524;11.284;2023-03-01T09:09:13;5.30;67.00
5192;DHT22;2615;44.524;11.284;2023-03-01T09:11:42;5.20;67.00
5192;DHT22;2615;44.524;11.284;2023-03-01T09:14:12;5.30;67.10
5192;DHT22;2615;44.524;11.284;2023-03-01T09:16:42;5.30;67.10
5192;DHT22;2615;44.524;11.284;2023-03-01T09:19:11;5.30;67.00
5192;DHT22;2615;44.524;11.284;2023-03-01T09:21:40;5.20;66.90
5192;DHT22;2615;44.524;11.284;2023-03-01T09:24:12;5.20;67.10
5192;DHT22;2615;44.524;11.284;2023-03-01T09:26:41;5.20;67.20
5192;DHT22;2615;44.524;11.284;2023-03-01T09:29:14;5.20;67.20
5192;DHT22;2615;44.524;11.284;2023-03-01T09:31:44;5.20;67.20
5192;DHT22;2615;44.524;11.284;2023-03-01T09:34:12;5.20;67.30
5192;DHT22;2615;44.524;11.284;2023-03-01T09:36:42;5.20;67.50
5192;DHT22;2615;44.524;11.284;2023-03-01T09:39:10;5.20;67.50
5192;DHT22;2615;44.524;11.284;2023-03-01T09:41:46;5.30;67.50
5192;DHT22;2615;44.524;11.284;2023-03-01T09:44:24;5.30;67.50
5192;DHT22;2615;44.524;11.284;2023-03-01T09:46:57;5.30;67.40
5192;DHT22;2615;44.524;11.284;2023-03-01T09:49:28;5.40;67.50
5192;DHT22;2615;44.524;11.284;2023-03-01T09:52:01;5.40;67.40
5192;DHT22;2615;44.524;11.284;2023-03-01T09:54:31;5.40;67.40
5192;DHT22;2615;44.524;11.284;2023-03-01T09:57:18;5.50;67.50
5192;DHT22;2615;44.524;11.284;2023-03-01T10:00:00;5.50;67.50
5192;DHT22;2615;44.524;11.284;2023-03-01T10:02:38;5.60;67.60
5192;DHT22;2615;44.524;11.284;2023-03-01T10:05:31;5.60;67.40
5192;DHT22;2615;44.524;11.284;2023-03-01T10:08:24;5.50;67.10
5192;DHT22;2615;44.524;11.284;2023-03-01T10:10:54;5.50;67.20
5192;DHT22;2615;44.524;11.284;2023-03-01T10:13:27;5.50;67.20
5192;DHT22;2615;44.524;11.284;2023-03-01T10:16:01;5.40;67.30
5192;DHT22;2615;44.524;11.284;2023-03-01T10:18:32;5.50;67.50
5192;DHT22;2615;44.524;11.284;2023-03-01T10:21:13;5.50;67.60
5192;DHT22;2615;44.524;11.284;2023-03-01T10:23:42;5.60;67.70
5192;DHT22;2615;44.524;11.284;2023-03-01T10:26:20;5.60;67.50
5192;DHT22;2615;44.524;11.284;2023-03-01T10:29:00;5.60;67.50
5192;DHT22;2615;44.524;11.284;2023-03-01T10:31:39;5.60;67.40
5192;DHT22;2615;44.524;11.284;2023-03-01T10:34:14;5.60;67.50
5192;DHT22;2615;44.524;11.284;2023-03-01T10:36:44;5.70;67.60
5192;DHT22;2615;44.524;11.284;2023-03-01T10:39:17;5.70;67.60
5192;DHT22;2615;44.524;11.284;2023-03-01T10:41:57;5.70;67.40
5192;DHT22;2615;44.524;11.284;2023-03-01T10:44:37;5.70;67.50
5192;DHT22;2615;44.524;11.284;2023-03-01T10:47:16;5.70;67.60
5192;DHT22;2615;44.524;11.284;2023-03-01T10:49:56;5.70;67.60
5192;DHT22;2615;44.524;11.284;2023-03-01T10:52:27;5.70;67.70
5192;DHT22;2615;44.524;11.284;2023-03-01T10:54:57;5.70;67.70
5192;DHT22;2615;44.524;11.284;2023-03-01T10:57:31;5.70;67.70
5192;DHT22;2615;44.524;11.284;2023-03-01T11:00:24;5.80;67.80
5192;DHT22;2615;44.524;11.284;2023-03-01T11:03:09;5.80;67.80
5192;DHT22;2615;44.524;11.284;2023-03-01T11:05:52;5.90;67.80
5192;DHT22;2615;44.524;11.284;2023-03-01T11:08:38;5.80;67.70
5192;DHT22;2615;44.524;11.284;2023-03-01T11:11:25;5.90;67.70
5192;DHT22;2615;44.524;11.284;2023-03-01T11:13:59;6.00;67.80
5192;DHT22;2615;44.524;11.284;2023-03-01T11:16:35;6.00;67.70
5192;DHT22;2615;44.524;11.284;2023-03-01T11:19:16;6.00;67.60
5192;DHT22;2615;44.524;11.284;2023-03-01T11:21:53;6.00;67.60
5192;DHT22;2615;44.524;11.284;2023-03-01T11:24:27;6.00;67.50
5192;DHT22;2615;44.524;11.284;2023-03-01T11:26:56;5.90;67.30
5192;DHT22;2615;44.524;11.284;2023-03-01T11:29:31;5.90;67.30
5192;DHT22;2615;44.524;11.284;2023-03-01T11:32:14;5.90;67.50
5192;DHT22;2615;44.524;11.284;2023-03-01T11:34:47;5.80;67.30
5192;DHT22;2615;44.524;11.284;2023-03-01T11:37:33;5.80;67.40
5192;DHT22;2615;44.524;11.284;2023-03-01T11:40:12;5.70;67.30
5192;DHT22;2615;44.524;11.284;2023-03-01T11:42:48;5.70;67.40
5192;DHT22;2615;44.524;11.284;2023-03-01T11:45:19;5.70;67.40
5192;DHT22;2615;44.524;11.284;2023-03-01T11:48:07;5.70;67.30
5192;DHT22;2615;44.524;11.284;2023-03-01T11:50:45;5.60;67.20
5192;DHT22;2615;44.524;11.284;2023-03-01T11:53:31;5.60;67.20
5192;DHT22;2615;44.524;11.284;2023-03-01T11:56:09;5.60;67.30
5192;DHT22;2615;44.524;11.284;2023-03-01T12:01:40;5.50;67.10
5192;DHT22;2615;44.524;11.284;2023-03-01T12:04:59;5.50;67.20
5192;DHT22;2615;44.524;11.284;2023-03-01T12:07:36;5.50;67.20
5192;DHT22;2615;44.524;11.284;2023-03-01T12:10:20;5.40;67.10
5192;DHT22;2615;44.524;11.284;2023-03-01T12:12:58;5.50;67.20
5192;DHT22;2615;44.524;11.284;2023-03-01T12:15:42;5.50;67.20
5192;DHT22;2615;44.524;11.284;2023-03-01T12:18:28;5.40;67.10
5192;DHT22;2615;44.524;11.284;2023-03-01T12:21:10;5.40;67.10
5192;DHT22;2615;44.524;11.284;2023-03-01T12:24:06;5.50;67.10
5192;DHT22;2615;44.524;11.284;2023-03-01T12:26:44;5.50;67.10
5192;DHT22;2615;44.524;11.284;2023-03-01T12:29:25;5.40;66.90
5192;DHT22;2615;44.524;11.284;2023-03-01T12:32:15;5.40;66.80
5192;DHT22;2615;44.524;11.284;2023-03-01T12:35:00;5.40;66.80
5192;DHT22;2615;44.524;11.284;2023-03-01T12:37:42;5.40;66.80
5192;DHT22;2615;44.524;11.284;2023-03-01T12:40:23;5.30;66.60
5192;DHT22;2615;44.524;11.284;2023-03-01T12:43:08;5.30;66.60
5192;DHT22;2615;44.524;11.284;2023-03-01T12:46:03;5.20;66.60
5192;DHT22;2615;44.524;11.284;2023-03-01T12:48:42;5.20;66.50
5192;DHT22;2615;44.524;11.284;2023-03-01T12:51:17;5.10;66.40
5192;DHT22;2615;44.524;11.284;2023-03-01T12:53:48;5.10;66.40
5192;DHT22;2615;44.524;11.284;2023-03-01T12:56:17;5.00;66.40
5192;DHT22;2615;44.524;11.284;2023-03-01T12:58:55;5.00;66.40
5192;DHT22;2615;44.524;11.284;2023-03-01T13:01:35;4.90;67.10
5192;DHT22;2615;44.524;11.284;2023-03-01T13:04:30;4.90;66.50
5192;DHT22;2615;44.524;11.284;2023-03-01T13:07:22;4.90;66.50
5192;DHT22;2615;44.524;11.284;2023-03-01T13:09:59;4.80;66.40
5192;DHT22;2615;44.524;11.284;2023-03-01T13:12:46;4.80;66.40
5192;DHT22;2615;44.524;11.284;2023-03-01T13:15:32;4.80;66.30
5192;DHT22;2615;44.524;11.284;2023-03-01T13:18:02;4.70;66.30
5192;DHT22;2615;44.524;11.284;2023-03-01T13:20:34;4.70;66.30
5192;DHT22;2615;44.524;11.284;2023-03-01T13:23:23;4.70;66.30
5192;DHT22;2615;44.524;11.284;2023-03-01T13:26:15;4.70;66.30
5192;DHT22;2615;44.524;11.284;2023-03-01T13:28:51;4.70;66.40
5192;DHT22;2615;44.524;11.284;2023-03-01T13:34:53;4.70;66.40
5192;DHT22;2615;44.524;11.284;2023-03-01T13:37:35;4.70;66.50
5192;DHT22;2615;44.524;11.284;2023-03-01T13:43:29;4.70;66.40
5192;DHT22;2615;44.524;11.284;2023-03-01T13:45:58;4.60;66.30
5192;DHT22;2615;44.524;11.284;2023-03-01T13:48:29;4.60;66.30
5192;DHT22;2615;44.524;11.284;2023-03-01T13:51:01;4.60;66.20
5192;DHT22;2615;44.524;11.284;2023-03-01T13:53:33;4.60;66.40
5192;DHT22;2615;44.524;11.284;2023-03-01T13:56:06;4.60;66.30
5192;DHT22;2615;44.524;11.284;2023-03-01T13:58:46;4.70;66.40
5192;DHT22;2615;44.524;11.284;2023-03-01T14:01:22;4.70;66.40
5192;DHT22;2615;44.524;11.284;2023-03-01T14:03:50;4.70;66.30
5192;DHT22;2615;44.524;11.284;2023-03-01T14:06:22;4.60;66.20
5192;DHT22;2615;44.524;11.284;2023-03-01T14:09:00;4.60;66.20
5192;DHT22;2615;44.524;11.284;2023-03-01T14:11:48;4.70;66.50
5192;DHT22;2615;44.524;11.284;2023-03-01T14:14:34;4.60;66.40
5192;DHT22;2615;44.524;11.284;2023-03-01T14:17:36;4.70;66.40
5192;DHT22;2615;44.524;11.284;2023-03-01T14:20:12;4.70;66.30
5192;DHT22;2615;44.524;11.284;2023-03-01T14:22:43;4.70;66.30
5192;DHT22;2615;44.524;11.284;2023-03-01T14:25:23;4.70;66.30
5192;DHT22;2615;44.524;11.284;2023-03-01T14:27:56;4.60;66.20
5192;DHT22;2615;44.524;11.284;2023-03-01T14:30:26;4.60;66.40
5192;DHT22;2615;44.524;11.284;2023-03-01T14:32:57;4.60;66.40
5192;DHT22;2615;44.524;11.284;2023-03-01T14:35:27;4.60;66.50
5192;DHT22;2615;44.524;11.284;2023-03-01T14:37:57;4.70;66.60
5192;DHT22;2615;44.524;11.284;2023-03-01T14:40:28;4.70;66.50
5192;DHT22;2615;44.524;11.284;2023-03-01T14:42:59;4.70;66.50
5192;DHT22;2615;44.524;11.284;2023-03-01T14:45:29;4.70;66.40
5192;DHT22;2615;44.524;11.284;2023-03-01T14:48:00;4.60;66.40
5192;DHT22;2615;44.524;11.284;2023-03-01T14:50:30;4.70;66.50
5192;DHT22;2615;44.524;11.284;2023-03-01T14:53:02;4.70;66.50
5192;DHT22;2615;44.524;11.284;2023-03-01T14:55:33;4.70;66.60
5192;DHT22;2615;44.524;11.284;2023-03-01T14:58:04;4.70;66.60
5192;DHT22;2615;44.524;11.284;2023-03-01T15:00:34;4.70;66.50
5192;DHT22;2615;44.524;11.284;2023-03-01T15:03:07;4.70;66.50
5192;DHT22;2615;44.524;11.284;2023-03-01T15:05:41;4.80;66.60
5192;DHT22;2615;44.524;11.284;2023-03-01T15:08:17;4.80;66.60
5192;DHT22;2615;44.524;11.284;2023-03-01T15:10:57;4.80;66.50
5192;DHT22;2615;44.524;11.284;2023-03-01T15:13:28;4.80;66.40
5192;DHT22;2615;44.524;11.284;2023-03-01T15:16:02;4.80;66.50
5192;DHT22;2615;44.524;11.284;2023-03-01T15:18:31;4.80;66.50
5192;DHT22;2615;44.524;11.284;2023-03-01T15:21:06;4.70;66.30
5192;DHT22;2615;44.524;11.284;2023-03-01T15:23:37;4.70;66.40
5192;DHT22;2615;44.524;11.284;2023-03-01T15:26:22;4.70;66.50
5192;DHT22;2615;44.524;11.284;2023-03-01T15:28:52;4.60;66.30
5192;DHT22;2615;44.524;11.284;2023-03-01T15:31:22;4.60;67.10
5192;DHT22;2615;44.524;11.284;2023-03-01T15:33:52;4.50;66.50
5192;DHT22;2615;44.524;11.284;2023-03-01T15:36:32;4.50;66.70
5192;DHT22;2615;44.524;11.284;2023-03-01T15:39:03;4.50;66.60
5192;DHT22;2615;44.524;11.284;2023-03-01T15:41:38;4.50;66.70
5192;DHT22;2615;44.524;11.284;2023-03-01T15:44:23;4.50;66.70
5192;DHT22;2615;44.524;11.284;2023-03-01T15:47:01;4.50;66.70
5192;DHT22;2615;44.524;11.284;2023-03-01T15:49:36;4.50;66.70
5192;DHT22;2615;44.524;11.284;2023-03-01T15:52:23;4.40;66.60
5192;DHT22;2615;44.524;11.284;2023-03-01T15:54:59;4.40;66.70
5192;DHT22;2615;44.524;11.284;2023-03-01T15:57:28;4.30;66.60
5192;DHT22;2615;44.524;11.284;2023-03-01T15:59:56;4.30;66.80
5192;DHT22;2615;44.524;11.284;2023-03-01T16:02:24;4.30;67.00
5192;DHT22;2615;44.524;11.284;2023-03-01T16:04:52;4.30;67.00
5192;DHT22;2615;44.524;11.284;2023-03-01T16:07:23;4.30;67.00
5192;DHT22;2615;44.524;11.284;2023-03-01T16:09:53;4.20;67.00
5192;DHT22;2615;44.524;11.284;2023-03-01T16:12:23;4.20;67.00
5192;DHT22;2615;44.524;11.284;2023-03-01T16:14:52;4.20;67.10
5192;DHT22;2615;44.524;11.284;2023-03-01T16:17:20;4.20;67.10
5192;DHT22;2615;44.524;11.284;2023-03-01T16:19:48;4.20;67.10
5192;DHT22;2615;44.524;11.284;2023-03-01T16:22:17;4.20;67.30
5192;DHT22;2615;44.524;11.284;2023-03-01T16:24:51;4.20;67.40
5192;DHT22;2615;44.524;11.284;2023-03-01T16:27:19;4.20;67.50
5192;DHT22;2615;44.524;11.284;2023-03-01T16:29:49;4.20;67.40
5192;DHT22;2615;44.524;11.284;2023-03-01T16:32:17;4.20;67.50
5192;DHT22;2615;44.524;11.284;2023-03-01T16:34:45;4.20;67.60
5192;DHT22;2615;44.524;11.284;2023-03-01T16:37:16;4.20;67.60
5192;DHT22;2615;44.524;11.284;2023-03-01T16:39:45;4.30;67.80
5192;DHT22;2615;44.524;11.284;2023-03-01T16:42:17;4.30;67.70
5192;DHT22;2615;44.524;11.284;2023-03-01T16:44:45;4.30;67.60
5192;DHT22;2615;44.524;11.284;2023-03-01T16:47:14;4.30;67.60